createdAt,value
2019-04-23T00:00:17.044Z,37.96
2019-04-23T00:03:12.820Z,38.04
2019-04-23T00:09:31.231Z,38.33
2019-04-23T00:12:43.843Z,38.42
2019-04-23T00:15:45.798Z,38.52
2019-04-23T00:18:42.334Z,38.65
2019-04-23T00:21:45.926Z,38.70
2019-04-23T00:27:59.340Z,38.89
2019-04-23T00:31:12.269Z,39.04
2019-04-23T00:34:01.092Z,39.12
2019-04-23T00:37:11.799Z,39.28
2019-04-23T00:40:16.640Z,39.41
2019-04-23T00:43:22.900Z,39.53
2019-04-23T00:46:24.913Z,39.76
2019-04-23T00:49:26.962Z,39.94
2019-04-23T00:52:26.387Z,40.07
2019-04-23T00:55:28.449Z,40.31
2019-04-23T00:58:41.530Z,40.42
2019-04-23T01:01:42.927Z,40.46
2019-04-23T01:04:48.009Z,40.54
2019-04-23T01:07:45.709Z,40.59
2019-04-23T01:14:06.725Z,40.63
2019-04-23T01:17:08.598Z,40.66
2019-04-23T01:20:08.460Z,40.72
2019-04-23T01:22:57.095Z,40.77
2019-04-23T01:26:20.987Z,40.92
2019-04-23T01:29:28.342Z,41.16
2019-04-23T01:35:33.368Z,41.30
2019-04-23T01:41:49.216Z,41.64
2019-04-23T01:44:54.954Z,41.69
2019-04-23T01:50:56.065Z,41.74
2019-04-23T01:53:57.141Z,41.66
2019-04-23T01:57:03.698Z,41.59
2019-04-23T02:03:26.917Z,41.65
2019-04-23T02:06:14.782Z,41.68
2019-04-23T02:09:17.117Z,41.75
2019-04-23T02:12:28.252Z,41.72
2019-04-23T02:15:31.920Z,41.70
2019-04-23T02:18:33.897Z,41.72
2019-04-23T02:21:39.814Z,41.80
2019-04-23T02:24:51.148Z,41.86
2019-04-23T02:27:57.520Z,42.06
2019-04-23T02:31:18.274Z,42.07
2019-04-23T02:34:14.297Z,42.14
2019-04-23T02:37:00.359Z,42.22
2019-04-23T02:40:26.350Z,42.13
2019-04-23T02:43:13.108Z,42.23
2019-04-23T02:52:21.713Z,42.50
2019-04-23T02:55:38.941Z,42.70
2019-04-23T02:58:36.712Z,42.77
2019-04-23T03:04:40.033Z,43.00
2019-04-23T03:10:51.279Z,43.05
2019-04-23T03:13:54.293Z,43.04
2019-04-23T03:16:56.353Z,43.31
2019-04-23T03:29:35.423Z,43.70
2019-04-23T03:38:48.376Z,44.03
2019-04-23T03:41:47.993Z,44.26
2019-04-23T03:47:56.180Z,44.38
2019-04-23T03:50:43.716Z,44.50
2019-04-23T03:54:11.643Z,44.37
2019-04-23T04:03:25.012Z,43.62
2019-04-23T04:06:39.527Z,42.88
2019-04-23T04:12:36.075Z,40.89
2019-04-23T04:19:22.984Z,38.82
2019-04-23T04:21:36.345Z,37.84
2019-04-23T04:31:00.530Z,34.66
2019-04-23T04:37:22.339Z,32.58
2019-04-23T04:58:39.366Z,28.99
2019-04-23T05:01:23.080Z,28.53
2019-04-23T05:10:51.632Z,27.44
2019-04-23T05:16:54.689Z,27.52
2019-04-23T05:19:58.847Z,27.72
2019-04-23T05:26:00.188Z,27.42
2019-04-23T05:32:07.564Z,27.18
2019-04-23T05:35:15.074Z,27.23
2019-04-23T05:38:30.050Z,27.07
2019-04-23T05:41:22.211Z,27.31
2019-04-23T05:44:38.345Z,27.52
2019-04-23T05:47:27.382Z,27.22
2019-04-23T05:50:42.591Z,27.04
2019-04-23T05:53:42.446Z,27.00
2019-04-23T05:56:42.207Z,27.60
2019-04-23T06:05:54.458Z,26.97
2019-04-23T06:08:58.450Z,26.98
2019-04-23T06:12:00.118Z,27.34
2019-04-23T06:15:04.915Z,27.22
2019-04-23T06:18:17.835Z,27.68
2019-04-23T06:21:15.637Z,28.54
2019-04-23T06:24:27.329Z,28.57
2019-04-23T06:27:32.082Z,28.15
2019-04-23T06:30:35.337Z,28.69
2019-04-23T06:33:32.300Z,29.05
2019-04-23T06:36:34.345Z,28.70
2019-04-23T06:43:01.273Z,29.39
2019-04-23T06:46:07.205Z,29.27
2019-04-23T06:49:09.480Z,29.32
2019-04-23T06:52:18.353Z,29.77
2019-04-23T06:55:25.442Z,30.76
2019-04-23T06:58:28.942Z,30.06
2019-04-23T07:01:19.215Z,30.14
2019-04-23T07:07:43.095Z,33.26
2019-04-23T07:10:39.001Z,32.73
2019-04-23T07:13:46.619Z,33.31
2019-04-23T07:16:38.554Z,32.44
2019-04-23T07:19:53.644Z,31.83
2019-04-23T07:22:59.600Z,32.33
2019-04-23T07:26:03.785Z,32.97
2019-04-23T07:32:05.396Z,31.16
2019-04-23T07:35:16.099Z,31.48
2019-04-23T07:38:38.510Z,31.48
2019-04-23T07:41:59.456Z,33.16
2019-04-23T07:51:14.114Z,33.63
2019-04-23T07:54:25.772Z,34.21
2019-04-23T08:00:38.339Z,33.32
2019-04-23T08:03:48.193Z,32.80
2019-04-23T08:06:41.003Z,32.06
2019-04-23T08:09:50.907Z,33.15
2019-04-23T08:12:46.828Z,32.90
2019-04-23T08:15:46.587Z,32.81
2019-04-23T08:18:55.495Z,32.71
2019-04-23T08:22:07.064Z,34.11
2019-04-23T08:25:10.981Z,35.06
2019-04-23T08:28:13.379Z,33.99
2019-04-23T08:31:14.181Z,34.50
2019-04-23T08:37:45.412Z,34.60
2019-04-23T08:40:33.861Z,35.71
2019-04-23T08:43:41.056Z,35.82
2019-04-23T08:46:56.857Z,36.43
2019-04-23T08:50:08.453Z,37.09
2019-04-23T08:53:10.686Z,35.93
2019-04-23T08:56:14.997Z,34.54
2019-04-23T08:59:09.393Z,34.61
2019-04-23T09:05:32.468Z,36.00
2019-04-23T09:11:35.879Z,35.41
2019-04-23T09:14:20.035Z,34.58
2019-04-23T09:20:43.234Z,38.36
2019-04-23T09:23:45.109Z,38.44
2019-04-23T09:26:41.470Z,39.97
2019-04-23T09:29:54.070Z,38.76
2019-04-23T09:32:54.491Z,38.34
2019-04-23T09:36:18.128Z,38.64
2019-04-23T09:39:46.944Z,38.86
2019-04-23T09:43:00.531Z,38.27
2019-04-23T09:46:23.609Z,39.37
2019-04-23T09:49:31.127Z,39.83
2019-04-23T09:55:38.496Z,38.80
2019-04-23T09:58:35.719Z,37.95
2019-04-23T10:01:36.354Z,37.86
2019-04-23T10:04:36.619Z,39.14
2019-04-23T10:07:39.718Z,38.58
2019-04-23T10:10:32.247Z,37.96
2019-04-23T10:13:34.625Z,36.45
2019-04-23T10:16:37.023Z,36.50
2019-04-23T10:19:40.637Z,36.36
2019-04-23T10:22:44.277Z,36.57
2019-04-23T10:25:47.861Z,37.59
2019-04-23T10:28:55.943Z,38.00
2019-04-23T10:31:59.743Z,39.03
2019-04-23T10:35:15.085Z,37.74
2019-04-23T10:38:10.796Z,37.27
2019-04-23T10:41:12.035Z,37.13
2019-04-23T10:44:25.659Z,36.92
2019-04-23T10:48:21.638Z,37.25
2019-04-23T10:51:25.016Z,36.09
2019-04-23T10:57:25.316Z,38.00
2019-04-23T11:00:36.107Z,37.36
2019-04-23T11:04:01.548Z,37.95
2019-04-23T11:06:47.448Z,37.24
2019-04-23T11:13:07.378Z,38.15
2019-04-23T11:19:15.172Z,36.08
2019-04-23T11:22:28.089Z,35.24
2019-04-23T11:25:26.310Z,35.56
2019-04-23T11:28:20.459Z,35.48
2019-04-23T11:31:30.996Z,35.56
2019-04-23T11:34:54.741Z,34.65
2019-04-23T11:37:43.866Z,34.10
2019-04-23T11:40:33.721Z,35.27
2019-04-23T11:43:42.415Z,36.60
2019-04-23T11:46:53.361Z,36.50
2019-04-23T11:49:53.223Z,38.19
2019-04-23T11:52:56.357Z,36.10
2019-04-23T11:55:53.499Z,37.52
2019-04-23T11:59:09.369Z,37.19
2019-04-23T12:02:07.501Z,37.39
2019-04-23T12:08:36.835Z,36.44
2019-04-23T12:12:31.177Z,37.03
2019-04-23T12:14:47.614Z,36.58
2019-04-23T12:17:56.005Z,36.42
2019-04-23T12:21:05.943Z,35.15
2019-04-23T12:24:28.487Z,35.31
2019-04-23T12:27:25.982Z,35.80
2019-04-23T12:30:25.336Z,37.41
2019-04-23T12:33:28.114Z,36.31
2019-04-23T12:36:37.670Z,36.63
2019-04-23T12:39:42.442Z,35.77
2019-04-23T12:45:42.489Z,35.43
2019-04-23T12:48:56.728Z,35.06
2019-04-23T12:51:57.513Z,35.59
2019-04-23T12:55:08.660Z,35.28
2019-04-23T12:58:11.500Z,35.09
2019-04-23T13:01:10.674Z,35.99
2019-04-23T13:04:16.381Z,35.94
2019-04-23T13:07:26.363Z,35.73
2019-04-23T13:10:22.195Z,35.54
2019-04-23T13:16:53.598Z,35.21
2019-04-23T13:22:47.662Z,35.83
2019-04-23T13:25:57.058Z,35.75
2019-04-23T13:29:04.936Z,34.83
2019-04-23T13:32:07.082Z,36.51
2019-04-23T13:35:36.234Z,35.93
2019-04-23T13:44:26.082Z,35.64
2019-04-23T13:47:38.208Z,35.06
2019-04-23T13:50:43.324Z,34.87
2019-04-23T13:57:13.003Z,35.31
2019-04-23T13:59:44.440Z,35.32
2019-04-23T14:02:49.453Z,35.76
2019-04-23T14:06:01.765Z,36.01
2019-04-23T14:12:09.058Z,37.05
2019-04-23T14:15:25.711Z,36.62
2019-04-23T14:18:41.935Z,36.84
2019-04-23T14:24:32.431Z,37.27
2019-04-23T14:33:46.049Z,38.64
2019-04-23T14:36:52.731Z,37.57
2019-04-23T14:39:54.206Z,38.23
2019-04-23T14:43:01.772Z,38.22
2019-04-23T14:49:19.260Z,39.43
2019-04-23T14:52:14.238Z,39.08
2019-04-23T15:01:35.409Z,38.32
2019-04-23T15:04:33.604Z,38.69
2019-04-23T15:07:34.640Z,38.40
2019-04-23T15:13:44.561Z,38.67
2019-04-23T15:16:54.453Z,37.81
2019-04-23T15:20:03.239Z,37.34
2019-04-23T15:23:25.449Z,36.45
2019-04-23T15:27:01.864Z,35.50
2019-04-23T15:28:58.519Z,35.78
2019-04-23T15:32:31.625Z,35.58
2019-04-23T15:35:29.504Z,35.47
2019-04-23T15:41:40.143Z,35.74
2019-04-23T15:44:46.528Z,35.42
2019-04-23T15:47:50.724Z,35.66
2019-04-23T15:50:56.052Z,35.52
2019-04-23T15:53:56.744Z,35.47
2019-04-23T15:57:01.174Z,35.55
2019-04-23T15:59:58.964Z,35.42
2019-04-23T16:02:38.065Z,35.47
2019-04-23T16:05:41.571Z,34.80
2019-04-23T16:09:06.424Z,34.71
2019-04-23T16:12:14.969Z,34.69
2019-04-23T16:15:35.818Z,34.28
2019-04-23T16:18:45.758Z,34.84
2019-04-23T16:21:54.675Z,35.31
2019-04-23T16:24:49.067Z,35.84
2019-04-23T16:27:50.417Z,35.78
2019-04-23T16:30:57.159Z,35.87
2019-04-23T16:37:18.045Z,36.25
2019-04-23T16:40:31.877Z,36.10
2019-04-23T16:43:19.828Z,36.25
2019-04-23T16:46:28.686Z,36.35
2019-04-23T16:52:34.478Z,36.47
2019-04-23T16:55:52.245Z,36.24
2019-04-23T17:01:54.016Z,36.67
2019-04-23T17:04:54.630Z,37.24
2019-04-23T17:08:25.148Z,37.19
2019-04-23T17:14:09.134Z,37.58
2019-04-23T17:16:58.244Z,38.04
2019-04-23T17:20:25.740Z,38.31
2019-04-23T17:29:35.347Z,38.01
2019-04-23T17:32:36.810Z,37.98
2019-04-23T17:36:18.302Z,37.94
2019-04-23T17:48:32.830Z,38.53
2019-04-23T17:51:40.570Z,38.57
2019-04-23T17:57:46.065Z,39.19
2019-04-23T18:01:02.577Z,39.37
2019-04-23T18:04:05.816Z,39.55
2019-04-23T18:07:04.402Z,39.98
2019-04-23T18:10:24.961Z,39.75
2019-04-23T18:13:16.884Z,40.06
2019-04-23T18:19:16.734Z,40.56
2019-04-23T18:22:35.516Z,40.34
2019-04-23T18:28:58.655Z,40.43
2019-04-23T18:32:16.990Z,40.39
2019-04-23T18:35:19.308Z,40.23
2019-04-23T18:38:29.146Z,40.21
2019-04-23T18:41:17.540Z,40.21
2019-04-23T18:44:38.375Z,39.98
2019-04-23T18:47:41.712Z,40.02
2019-04-23T18:50:48.173Z,40.59
2019-04-23T18:57:02.022Z,42.03
2019-04-23T19:03:11.684Z,42.57
2019-04-23T19:10:16.882Z,43.36
2019-04-23T19:16:13.137Z,45.05
2019-04-23T19:22:43.237Z,46.41
2019-04-23T19:25:23.018Z,47.63
2019-04-23T19:28:47.639Z,48.37
2019-04-23T19:31:57.000Z,48.68
2019-04-23T19:35:04.130Z,49.22
2019-04-23T19:38:13.454Z,50.26
2019-04-23T19:41:23.832Z,50.93
2019-04-23T19:44:29.258Z,51.68
2019-04-23T19:50:43.721Z,52.87
2019-04-23T19:56:51.410Z,53.86
2019-04-23T20:06:13.780Z,55.46
2019-04-23T20:12:03.203Z,55.98
2019-04-23T20:18:09.055Z,56.13
2019-04-23T20:21:08.316Z,55.99
2019-04-23T20:24:55.729Z,56.15
2019-04-23T20:27:26.388Z,56.70
2019-04-23T20:34:24.558Z,57.34
2019-04-23T20:37:06.516Z,58.06
2019-04-23T20:40:23.686Z,58.30
2019-04-23T20:43:28.823Z,59.09
2019-04-23T20:46:25.242Z,59.25
2019-04-23T20:49:42.327Z,59.78
2019-04-23T20:52:26.224Z,59.89
2019-04-23T20:58:57.010Z,61.05
2019-04-23T21:02:06.333Z,61.30
2019-04-23T21:05:06.251Z,61.87
2019-04-23T21:08:12.346Z,61.87
2019-04-23T21:11:03.075Z,62.06
2019-04-23T21:14:33.466Z,62.24
2019-04-23T21:17:14.316Z,62.36
2019-04-23T21:20:24.469Z,62.42
2019-04-23T21:23:21.249Z,62.80
2019-04-23T21:26:25.113Z,62.80
2019-04-23T21:29:37.746Z,62.92
2019-04-23T21:32:43.726Z,63.05
2019-04-23T21:36:03.187Z,63.63
2019-04-23T21:39:10.407Z,63.67
2019-04-23T21:42:14.224Z,64.12
2019-04-23T21:45:13.157Z,63.99
2019-04-23T21:48:36.676Z,63.72
2019-04-23T21:51:46.445Z,63.73
2019-04-23T21:54:30.755Z,63.72
2019-04-23T21:57:42.101Z,63.71
2019-04-23T22:00:44.456Z,63.81
2019-04-23T22:04:05.149Z,63.70
2019-04-23T22:09:53.348Z,64.13
2019-04-23T22:13:09.579Z,63.99
2019-04-23T22:16:07.271Z,63.89
2019-04-23T22:19:10.468Z,64.17
2019-04-23T22:22:00.854Z,64.20
2019-04-23T22:25:02.977Z,64.29
2019-04-23T22:28:21.153Z,64.45
2019-04-23T22:31:18.605Z,64.44
2019-04-23T22:34:21.708Z,64.30
2019-04-23T22:37:39.803Z,64.26
2019-04-23T22:40:31.390Z,64.27
2019-04-23T22:44:02.397Z,64.23
2019-04-23T22:46:52.999Z,64.25
2019-04-23T22:49:47.938Z,64.24
2019-04-23T22:52:54.048Z,64.06
2019-04-23T22:55:57.671Z,64.42
2019-04-23T22:59:18.706Z,64.36
2019-04-23T23:02:18.567Z,64.53
2019-04-23T23:05:14.118Z,64.25
2019-04-23T23:11:13.668Z,64.75
2019-04-23T23:17:24.204Z,64.55
2019-04-23T23:20:29.592Z,64.46
2019-04-23T23:26:54.367Z,64.26
2019-04-23T23:29:49.391Z,64.18
2019-04-23T23:32:51.732Z,63.69
2019-04-23T23:39:00.487Z,63.02
2019-04-23T23:41:57.191Z,63.20
2019-04-23T23:45:03.548Z,63.16
2019-04-23T23:51:15.861Z,63.20
